sensor_id;sensor_type;location;lat;lon;timestamp;P1;durP1;ratioP1;P2;durP2;ratioP2
2213;SDS011;1113;42.018;23.986;2023-08-06T00:00:00;7.40;;;5.80;;
2213;SDS011;1113;42.018;23.986;2023-08-06T00:02:28;8.63;;;5.77;;
2213;SDS011;1113;42.018;23.986;2023-08-06T00:04:55;10.67;;;6.17;;
2213;SDS011;1113;42.018;23.986;2023-08-06T00:07:22;9.50;;;6.00;;
2213;SDS011;1113;42.018;23.986;2023-08-06T00:09:49;11.40;;;5.90;;
2213;SDS011;1113;42.018;23.986;2023-08-06T00:12:16;6.83;;;6.07;;
2213;SDS011;1113;42.018;23.986;2023-08-06T00:14:43;8.53;;;5.70;;
2213;SDS011;1113;42.018;23.986;2023-08-06T00:17:12;10.00;;;6.13;;
2213;SDS011;1113;42.018;23.986;2023-08-06T00:19:40;10.90;;;5.80;;
2213;SDS011;1113;42.018;23.986;2023-08-06T00:22:07;8.33;;;6.80;;
2213;SDS011;1113;42.018;23.986;2023-08-06T00:24:34;8.00;;;6.80;;
2213;SDS011;1113;42.018;23.986;2023-08-06T00:27:01;8.20;;;6.40;;
2213;SDS011;1113;42.018;23.986;2023-08-06T00:29:28;9.80;;;6.63;;
2213;SDS011;1113;42.018;23.986;2023-08-06T00:31:56;13.33;;;7.80;;
2213;SDS011;1113;42.018;23.986;2023-08-06T00:34:24;9.23;;;7.00;;
2213;SDS011;1113;42.018;23.986;2023-08-06T00:36:52;10.47;;;7.30;;
2213;SDS011;1113;42.018;23.986;2023-08-06T00:39:19;8.73;;;7.60;;
2213;SDS011;1113;42.018;23.986;2023-08-06T00:41:46;10.70;;;8.43;;
2213;SDS011;1113;42.018;23.986;2023-08-06T00:44:13;10.03;;;8.20;;
2213;SDS011;1113;42.018;23.986;2023-08-06T00:46:40;9.30;;;8.30;;
2213;SDS011;1113;42.018;23.986;2023-08-06T00:49:07;8.60;;;7.70;;
2213;SDS011;1113;42.018;23.986;2023-08-06T00:51:36;10.00;;;8.30;;
2213;SDS011;1113;42.018;23.986;2023-08-06T00:54:03;9.17;;;8.23;;
2213;SDS011;1113;42.018;23.986;2023-08-06T00:56:31;9.63;;;8.43;;
2213;SDS011;1113;42.018;23.986;2023-08-06T00:58:58;8.73;;;7.93;;
2213;SDS011;1113;42.018;23.986;2023-08-06T01:01:25;10.17;;;8.70;;
2213;SDS011;1113;42.018;23.986;2023-08-06T01:03:53;14.00;;;10.27;;
2213;SDS011;1113;42.018;23.986;2023-08-06T01:06:22;11.37;;;9.00;;
2213;SDS011;1113;42.018;23.986;2023-08-06T01:08:54;14.03;;;10.17;;
2213;SDS011;1113;42.018;23.986;2023-08-06T01:11:26;11.10;;;9.40;;
2213;SDS011;1113;42.018;23.986;2023-08-06T01:13:55;10.17;;;8.83;;
2213;SDS011;1113;42.018;23.986;2023-08-06T01:16:26;12.63;;;10.77;;
2213;SDS011;1113;42.018;23.986;2023-08-06T01:18:53;11.93;;;10.13;;
2213;SDS011;1113;42.018;23.986;2023-08-06T01:21:22;13.07;;;10.60;;
2213;SDS011;1113;42.018;23.986;2023-08-06T01:23:49;12.20;;;10.00;;
2213;SDS011;1113;42.018;23.986;2023-08-06T01:26:19;14.07;;;11.60;;
2213;SDS011;1113;42.018;23.986;2023-08-06T01:28:52;14.47;;;12.93;;
2213;SDS011;1113;42.018;23.986;2023-08-06T01:31:22;13.53;;;12.13;;
2213;SDS011;1113;42.018;23.986;2023-08-06T01:33:51;14.30;;;12.20;;
2213;SDS011;1113;42.018;23.986;2023-08-06T01:36:19;14.03;;;12.63;;
2213;SDS011;1113;42.018;23.986;2023-08-06T01:38:49;12.20;;;10.83;;
2213;SDS011;1113;42.018;23.986;2023-08-06T01:41:17;13.17;;;11.13;;
2213;SDS011;1113;42.018;23.986;2023-08-06T01:43:44;12.97;;;11.67;;
2213;SDS011;1113;42.018;23.986;2023-08-06T01:46:12;13.17;;;10.93;;
2213;SDS011;1113;42.018;23.986;2023-08-06T01:48:39;13.13;;;11.67;;
2213;SDS011;1113;42.018;23.986;2023-08-06T01:51:06;13.90;;;12.13;;
2213;SDS011;1113;42.018;23.986;2023-08-06T01:53:33;15.40;;;11.80;;
2213;SDS011;1113;42.018;23.986;2023-08-06T01:56:02;16.90;;;12.60;;
2213;SDS011;1113;42.018;23.986;2023-08-06T01:58:29;16.10;;;12.90;;
2213;SDS011;1113;42.018;23.986;2023-08-06T02:00:56;16.43;;;13.17;;
2213;SDS011;1113;42.018;23.986;2023-08-06T02:03:23;13.67;;;11.67;;
2213;SDS011;1113;42.018;23.986;2023-08-06T02:05:50;12.40;;;11.10;;
2213;SDS011;1113;42.018;23.986;2023-08-06T02:08:17;14.57;;;12.97;;
2213;SDS011;1113;42.018;23.986;2023-08-06T02:10:44;17.40;;;13.10;;
2213;SDS011;1113;42.018;23.986;2023-08-06T02:13:13;14.00;;;12.70;;
2213;SDS011;1113;42.018;23.986;2023-08-06T02:15:43;17.47;;;15.27;;
2213;SDS011;1113;42.018;23.986;2023-08-06T02:18:10;14.90;;;12.87;;
2213;SDS011;1113;42.018;23.986;2023-08-06T02:20:37;16.97;;;13.70;;
2213;SDS011;1113;42.018;23.986;2023-08-06T02:23:04;15.77;;;14.27;;
2213;SDS011;1113;42.018;23.986;2023-08-06T02:25:31;16.03;;;14.33;;
2213;SDS011;1113;42.018;23.986;2023-08-06T02:27:58;15.90;;;13.00;;
2213;SDS011;1113;42.018;23.986;2023-08-06T02:30:27;15.90;;;12.20;;
2213;SDS011;1113;42.018;23.986;2023-08-06T02:32:54;15.07;;;13.40;;
2213;SDS011;1113;42.018;23.986;2023-08-06T02:35:22;15.17;;;13.57;;
2213;SDS011;1113;42.018;23.986;2023-08-06T02:37:49;16.27;;;14.57;;
2213;SDS011;1113;42.018;23.986;2023-08-06T02:40:16;15.87;;;13.40;;
2213;SDS011;1113;42.018;23.986;2023-08-06T02:42:43;15.77;;;14.17;;
2213;SDS011;1113;42.018;23.986;2023-08-06T02:45:10;15.30;;;13.70;;
2213;SDS011;1113;42.018;23.986;2023-08-06T02:47:39;15.77;;;13.60;;
2213;SDS011;1113;42.018;23.986;2023-08-06T02:50:06;14.60;;;12.63;;
2213;SDS011;1113;42.018;23.986;2023-08-06T02:52:33;15.40;;;13.67;;
2213;SDS011;1113;42.018;23.986;2023-08-06T02:55:00;14.40;;;12.90;;
2213;SDS011;1113;42.018;23.986;2023-08-06T02:57:27;16.93;;;14.57;;
2213;SDS011;1113;42.018;23.986;2023-08-06T02:59:54;17.33;;;15.20;;
2213;SDS011;1113;42.018;23.986;2023-08-06T03:02:21;16.90;;;14.87;;
2213;SDS011;1113;42.018;23.986;2023-08-06T03:04:50;17.17;;;15.07;;
2213;SDS011;1113;42.018;23.986;2023-08-06T03:07:17;17.60;;;15.33;;
2213;SDS011;1113;42.018;23.986;2023-08-06T03:09:44;16.33;;;14.63;;
2213;SDS011;1113;42.018;23.986;2023-08-06T03:12:10;20.13;;;14.80;;
2213;SDS011;1113;42.018;23.986;2023-08-06T03:14:37;17.17;;;15.33;;
2213;SDS011;1113;42.018;23.986;2023-08-06T03:17:05;18.77;;;15.20;;
2213;SDS011;1113;42.018;23.986;2023-08-06T03:19:32;19.30;;;14.80;;
2213;SDS011;1113;42.018;23.986;2023-08-06T03:22:01;18.27;;;15.30;;
2213;SDS011;1113;42.018;23.986;2023-08-06T03:24:28;18.30;;;16.33;;
2213;SDS011;1113;42.018;23.986;2023-08-06T03:26:55;17.60;;;15.20;;
2213;SDS011;1113;42.018;23.986;2023-08-06T03:29:22;16.60;;;14.90;;
2213;SDS011;1113;42.018;23.986;2023-08-06T03:31:49;17.43;;;15.63;;
2213;SDS011;1113;42.018;23.986;2023-08-06T03:34:16;20.57;;;15.80;;
2213;SDS011;1113;42.018;23.986;2023-08-06T03:36:43;19.97;;;15.07;;
2213;SDS011;1113;42.018;23.986;2023-08-06T03:39:11;20.87;;;16.53;;
2213;SDS011;1113;42.018;23.986;2023-08-06T03:41:39;18.03;;;16.10;;
2213;SDS011;1113;42.018;23.986;2023-08-06T03:44:06;19.23;;;16.70;;
2213;SDS011;1113;42.018;23.986;2023-08-06T03:46:33;18.63;;;16.63;;
2213;SDS011;1113;42.018;23.986;2023-08-06T03:49:00;21.37;;;16.70;;
2213;SDS011;1113;42.018;23.986;2023-08-06T03:51:27;20.17;;;14.93;;
2213;SDS011;1113;42.018;23.986;2023-08-06T03:53:54;17.23;;;14.80;;
2213;SDS011;1113;42.018;23.986;2023-08-06T03:56:23;17.30;;;15.13;;
2213;SDS011;1113;42.018;23.986;2023-08-06T03:58:50;17.10;;;15.40;;
2213;SDS011;1113;42.018;23.986;2023-08-06T04:01:17;17.50;;;15.67;;
2213;SDS011;1113;42.018;23.986;2023-08-06T04:03:44;16.70;;;14.23;;
2213;SDS011;1113;42.018;23.986;2023-08-06T04:06:11;17.60;;;15.07;;
2213;SDS011;1113;42.018;23.986;2023-08-06T04:08:38;16.17;;;14.00;;
2213;SDS011;1113;42.018;23.986;2023-08-06T04:11:05;16.10;;;14.40;;
2213;SDS011;1113;42.018;23.986;2023-08-06T04:13:34;14.80;;;13.40;;
2213;SDS011;1113;42.018;23.986;2023-08-06T04:16:01;15.67;;;13.23;;
2213;SDS011;1113;42.018;23.986;2023-08-06T04:18:29;16.43;;;13.50;;
2213;SDS011;1113;42.018;23.986;2023-08-06T04:20:56;16.67;;;14.30;;
2213;SDS011;1113;42.018;23.986;2023-08-06T04:23:23;17.47;;;14.67;;
2213;SDS011;1113;42.018;23.986;2023-08-06T04:25:50;15.90;;;14.20;;
2213;SDS011;1113;42.018;23.986;2023-08-06T04:28:17;16.33;;;14.63;;
2213;SDS011;1113;42.018;23.986;2023-08-06T04:30:46;16.63;;;14.53;;
2213;SDS011;1113;42.018;23.986;2023-08-06T04:33:13;15.77;;;14.17;;
2213;SDS011;1113;42.018;23.986;2023-08-06T04:35:41;16.57;;;14.30;;
2213;SDS011;1113;42.018;23.986;2023-08-06T04:38:08;15.57;;;13.97;;
2213;SDS011;1113;42.018;23.986;2023-08-06T04:40:35;17.43;;;12.93;;
2213;SDS011;1113;42.018;23.986;2023-08-06T04:43:03;15.70;;;13.30;;
2213;SDS011;1113;42.018;23.986;2023-08-06T04:45:30;15.80;;;13.63;;
2213;SDS011;1113;42.018;23.986;2023-08-06T04:47:58;19.13;;;13.80;;
2213;SDS011;1113;42.018;23.986;2023-08-06T04:50:25;15.60;;;13.33;;
2213;SDS011;1113;42.018;23.986;2023-08-06T04:52:53;16.00;;;14.33;;
2213;SDS011;1113;42.018;23.986;2023-08-06T04:55:20;15.53;;;13.90;;
2213;SDS011;1113;42.018;23.986;2023-08-06T04:57:48;15.50;;;13.90;;
2213;SDS011;1113;42.018;23.986;2023-08-06T05:00:15;17.50;;;15.60;;
2213;SDS011;1113;42.018;23.986;2023-08-06T05:02:42;17.43;;;15.80;;
2213;SDS011;1113;42.018;23.986;2023-08-06T05:05:11;14.90;;;13.40;;
2213;SDS011;1113;42.018;23.986;2023-08-06T05:07:38;15.70;;;14.10;;
2213;SDS011;1113;42.018;23.986;2023-08-06T05:10:05;17.03;;;15.33;;
2213;SDS011;1113;42.018;23.986;2023-08-06T05:12:33;17.13;;;15.30;;
2213;SDS011;1113;42.018;23.986;2023-08-06T05:15:00;19.33;;;16.53;;
2213;SDS011;1113;42.018;23.986;2023-08-06T05:17:27;20.70;;;15.93;;
2213;SDS011;1113;42.018;23.986;2023-08-06T05:19:54;17.60;;;15.73;;
2213;SDS011;1113;42.018;23.986;2023-08-06T05:22:22;17.63;;;15.73;;
2213;SDS011;1113;42.018;23.986;2023-08-06T05:24:50;19.90;;;15.87;;
2213;SDS011;1113;42.018;23.986;2023-08-06T05:27:17;18.80;;;16.80;;
2213;SDS011;1113;42.018;23.986;2023-08-06T05:29:44;18.47;;;16.47;;
2213;SDS011;1113;42.018;23.986;2023-08-06T05:32:12;18.77;;;16.80;;
2213;SDS011;1113;42.018;23.986;2023-08-06T05:34:39;19.73;;;17.50;;
2213;SDS011;1113;42.018;23.986;2023-08-06T05:37:07;19.00;;;17.00;;
2213;SDS011;1113;42.018;23.986;2023-08-06T05:39:36;21.70;;;17.87;;
2213;SDS011;1113;42.018;23.986;2023-08-06T05:42:04;18.93;;;15.97;;
2213;SDS011;1113;42.018;23.986;2023-08-06T05:44:32;19.10;;;17.13;;
2213;SDS011;1113;42.018;23.986;2023-08-06T05:46:59;18.80;;;16.70;;
2213;SDS011;1113;42.018;23.986;2023-08-06T05:49:29;20.03;;;16.50;;
2213;SDS011;1113;42.018;23.986;2023-08-06T05:51:56;21.90;;;16.87;;
2213;SDS011;1113;42.018;23.986;2023-08-06T05:54:23;19.50;;;17.50;;
2213;SDS011;1113;42.018;23.986;2023-08-06T05:56:52;18.97;;;16.87;;
2213;SDS011;1113;42.018;23.986;2023-08-06T05:59:19;19.73;;;16.70;;
2213;SDS011;1113;42.018;23.986;2023-08-06T06:01:46;19.47;;;16.20;;
2213;SDS011;1113;42.018;23.986;2023-08-06T06:04:13;22.50;;;16.30;;
2213;SDS011;1113;42.018;23.986;2023-08-06T06:06:40;21.13;;;18.07;;
2213;SDS011;1113;42.018;23.986;2023-08-06T06:09:08;19.47;;;17.17;;
2213;SDS011;1113;42.018;23.986;2023-08-06T06:11:35;20.93;;;17.37;;
2213;SDS011;1113;42.018;23.986;2023-08-06T06:14:04;18.43;;;16.60;;
2213;SDS011;1113;42.018;23.986;2023-08-06T06:16:31;18.97;;;16.17;;
2213;SDS011;1113;42.018;23.986;2023-08-06T06:18:58;18.00;;;15.50;;
2213;SDS011;1113;42.018;23.986;2023-08-06T06:21:25;15.90;;;14.00;;
2213;SDS011;1113;42.018;23.986;2023-08-06T06:23:52;17.17;;;15.37;;
2213;SDS011;1113;42.018;23.986;2023-08-06T06:26:19;15.63;;;14.03;;
2213;SDS011;1113;42.018;23.986;2023-08-06T06:28:46;18.00;;;14.60;;
2213;SDS011;1113;42.018;23.986;2023-08-06T06:31:15;15.80;;;14.10;;
2213;SDS011;1113;42.018;23.986;2023-08-06T06:33:41;17.60;;;15.80;;
2213;SDS011;1113;42.018;23.986;2023-08-06T06:36:08;17.00;;;15.20;;
2213;SDS011;1113;42.018;23.986;2023-08-06T06:38:36;16.67;;;13.70;;
2213;SDS011;1113;42.018;23.986;2023-08-06T06:41:03;15.70;;;14.10;;
2213;SDS011;1113;42.018;23.986;2023-08-06T06:43:30;15.00;;;13.40;;
2213;SDS011;1113;42.018;23.986;2023-08-06T06:45:57;14.93;;;13.43;;
2213;SDS011;1113;42.018;23.986;2023-08-06T06:48:27;16.77;;;13.43;;
2213;SDS011;1113;42.018;23.986;2023-08-06T06:50:54;14.57;;;13.00;;
2213;SDS011;1113;42.018;23.986;2023-08-06T06:53:21;14.60;;;12.23;;
2213;SDS011;1113;42.018;23.986;2023-08-06T06:55:52;14.67;;;13.10;;
2213;SDS011;1113;42.018;23.986;2023-08-06T06:58:19;14.63;;;12.27;;
2213;SDS011;1113;42.018;23.986;2023-08-06T07:00:46;13.80;;;12.33;;
2213;SDS011;1113;42.018;23.986;2023-08-06T07:03:13;13.07;;;11.77;;
2213;SDS011;1113;42.018;23.986;2023-08-06T07:05:42;14.43;;;12.97;;
2213;SDS011;1113;42.018;23.986;2023-08-06T07:08:09;13.80;;;12.40;;
2213;SDS011;1113;42.018;23.986;2023-08-06T07:10:37;14.30;;;12.80;;
2213;SDS011;1113;42.018;23.986;2023-08-06T07:13:04;13.63;;;12.23;;
2213;SDS011;1113;42.018;23.986;2023-08-06T07:15:31;14.10;;;12.63;;
2213;SDS011;1113;42.018;23.986;2023-08-06T07:17:58;13.33;;;12.03;;
2213;SDS011;1113;42.018;23.986;2023-08-06T07:20:26;13.80;;;12.03;;
2213;SDS011;1113;42.018;23.986;2023-08-06T07:22:56;12.60;;;11.50;;
2213;SDS011;1113;42.018;23.986;2023-08-06T07:25:23;13.83;;;12.43;;
2213;SDS011;1113;42.018;23.986;2023-08-06T07:27:50;13.60;;;12.20;;
2213;SDS011;1113;42.018;23.986;2023-08-06T07:30:17;13.90;;;12.50;;
2213;SDS011;1113;42.018;23.986;2023-08-06T07:32:44;12.63;;;11.43;;
2213;SDS011;1113;42.018;23.986;2023-08-06T07:35:12;11.43;;;10.43;;
2213;SDS011;1113;42.018;23.986;2023-08-06T07:37:40;11.87;;;9.63;;
2213;SDS011;1113;42.018;23.986;2023-08-06T07:40:09;11.13;;;10.13;;
2213;SDS011;1113;42.018;23.986;2023-08-06T07:42:36;11.30;;;10.10;;
2213;SDS011;1113;42.018;23.986;2023-08-06T07:45:04;11.40;;;9.87;;
2213;SDS011;1113;42.018;23.986;2023-08-06T07:47:31;9.87;;;8.87;;
2213;SDS011;1113;42.018;23.986;2023-08-06T07:49:58;12.07;;;10.07;;
2213;SDS011;1113;42.018;23.986;2023-08-06T07:52:26;10.03;;;9.03;;
2213;SDS011;1113;42.018;23.986;2023-08-06T07:54:53;11.13;;;10.13;;
2213;SDS011;1113;42.018;23.986;2023-08-06T07:57:22;11.10;;;9.23;;
2213;SDS011;1113;42.018;23.986;2023-08-06T07:59:49;11.47;;;9.63;;
2213;SDS011;1113;42.018;23.986;2023-08-06T08:02:16;10.97;;;9.80;;
2213;SDS011;1113;42.018;23.986;2023-08-06T08:04:44;13.30;;;10.40;;
2213;SDS011;1113;42.018;23.986;2023-08-06T08:07:12;10.90;;;9.77;;
2213;SDS011;1113;42.018;23.986;2023-08-06T08:09:40;10.13;;;9.13;;
2213;SDS011;1113;42.018;23.986;2023-08-06T08:12:07;11.27;;;10.00;;
2213;SDS011;1113;42.018;23.986;2023-08-06T08:14:36;10.50;;;9.50;;
2213;SDS011;1113;42.018;23.986;2023-08-06T08:17:03;10.20;;;9.07;;
2213;SDS011;1113;42.018;23.986;2023-08-06T08:19:30;8.87;;;7.97;;
2213;SDS011;1113;42.018;23.986;2023-08-06T08:21:58;9.07;;;8.13;;
2213;SDS011;1113;42.018;23.986;2023-08-06T08:24:25;9.47;;;7.80;;
2213;SDS011;1113;42.018;23.986;2023-08-06T08:26:52;8.17;;;7.37;;
2213;SDS011;1113;42.018;23.986;2023-08-06T08:29:19;7.77;;;6.97;;
2213;SDS011;1113;42.018;23.986;2023-08-06T08:31:48;8.53;;;7.63;;
2213;SDS011;1113;42.018;23.986;2023-08-06T08:34:16;7.33;;;6.13;;
2213;SDS011;1113;42.018;23.986;2023-08-06T08:36:43;6.70;;;6.00;;
2213;SDS011;1113;42.018;23.986;2023-08-06T08:39:12;8.50;;;6.53;;
2213;SDS011;1113;42.018;23.986;2023-08-06T08:41:39;7.30;;;5.80;;
2213;SDS011;1113;42.018;23.986;2023-08-06T08:44:08;6.63;;;5.77;;
2213;SDS011;1113;42.018;23.986;2023-08-06T08:46:35;6.80;;;6.10;;
2213;SDS011;1113;42.018;23.986;2023-08-06T08:49:05;5.80;;;5.23;;
2213;SDS011;1113;42.018;23.986;2023-08-06T08:51:35;7.23;;;6.43;;
2213;SDS011;1113;42.018;23.986;2023-08-06T08:54:02;8.20;;;6.00;;
2213;SDS011;1113;42.018;23.986;2023-08-06T08:56:30;7.03;;;6.33;;
2213;SDS011;1113;42.018;23.986;2023-08-06T08:58:58;6.40;;;5.80;;
2213;SDS011;1113;42.018;23.986;2023-08-06T09:01:25;6.83;;;6.13;;
2213;SDS011;1113;42.018;23.986;2023-08-06T09:03:54;7.10;;;6.00;;
2213;SDS011;1113;42.018;23.986;2023-08-06T09:06:23;6.50;;;5.67;;
2213;SDS011;1113;42.018;23.986;2023-08-06T09:08:54;5.77;;;5.27;;
2213;SDS011;1113;42.018;23.986;2023-08-06T09:11:23;6.93;;;6.00;;
2213;SDS011;1113;42.018;23.986;2023-08-06T09:13:50;6.40;;;5.77;;
2213;SDS011;1113;42.018;23.986;2023-08-06T09:16:17;6.20;;;5.60;;
2213;SDS011;1113;42.018;23.986;2023-08-06T09:18:44;7.97;;;6.37;;
2213;SDS011;1113;42.018;23.986;2023-08-06T09:21:13;7.87;;;6.30;;
2213;SDS011;1113;42.018;23.986;2023-08-06T09:23:42;6.80;;;6.07;;
2213;SDS011;1113;42.018;23.986;2023-08-06T09:26:13;7.07;;;5.53;;
2213;SDS011;1113;42.018;23.986;2023-08-06T09:28:40;8.50;;;6.90;;
2213;SDS011;1113;42.018;23.986;2023-08-06T09:31:08;6.40;;;5.80;;
2213;SDS011;1113;42.018;23.986;2023-08-06T09:33:35;7.00;;;6.30;;
2213;SDS011;1113;42.018;23.986;2023-08-06T09:36:07;6.57;;;5.47;;
2213;SDS011;1113;42.018;23.986;2023-08-06T09:38:37;5.67;;;5.07;;
2213;SDS011;1113;42.018;23.986;2023-08-06T09:41:08;5.73;;;5.13;;
2213;SDS011;1113;42.018;23.986;2023-08-06T09:43:41;5.97;;;5.37;;
2213;SDS011;1113;42.018;23.986;2023-08-06T09:46:14;6.37;;;5.30;;
2213;SDS011;1113;42.018;23.986;2023-08-06T09:48:44;6.00;;;4.70;;
2213;SDS011;1113;42.018;23.986;2023-08-06T09:51:11;5.47;;;4.97;;
2213;SDS011;1113;42.018;23.986;2023-08-06T09:53:40;6.57;;;4.93;;
2213;SDS011;1113;42.018;23.986;2023-08-06T09:56:09;3.03;;;2.40;;
2213;SDS011;1113;42.018;23.986;2023-08-06T09:58:36;3.40;;;2.43;;
2213;SDS011;1113;42.018;23.986;2023-08-06T10:01:03;3.77;;;2.00;;
2213;SDS011;1113;42.018;23.986;2023-08-06T10:03:30;3.00;;;2.10;;
2213;SDS011;1113;42.018;23.986;2023-08-06T10:05:59;3.13;;;1.70;;
2213;SDS011;1113;42.018;23.986;2023-08-06T10:08:27;3.30;;;1.83;;
2213;SDS011;1113;42.018;23.986;2023-08-06T10:10:54;3.07;;;1.67;;
2213;SDS011;1113;42.018;23.986;2023-08-06T10:13:24;2.50;;;1.70;;
2213;SDS011;1113;42.018;23.986;2023-08-06T10:15:52;2.53;;;1.83;;
2213;SDS011;1113;42.018;23.986;2023-08-06T10:18:19;6.27;;;2.00;;
2213;SDS011;1113;42.018;23.986;2023-08-06T10:20:48;2.50;;;1.90;;
2213;SDS011;1113;42.018;23.986;2023-08-06T10:23:15;6.53;;;1.70;;
2213;SDS011;1113;42.018;23.986;2023-08-06T10:25:46;3.30;;;1.90;;
2213;SDS011;1113;42.018;23.986;2023-08-06T10:28:20;2.00;;;1.43;;
2213;SDS011;1113;42.018;23.986;2023-08-06T10:30:49;3.20;;;1.80;;
2213;SDS011;1113;42.018;23.986;2023-08-06T10:33:18;4.93;;;1.90;;
2213;SDS011;1113;42.018;23.986;2023-08-06T10:35:46;3.93;;;1.57;;
2213;SDS011;1113;42.018;23.986;2023-08-06T10:38:18;3.00;;;1.70;;
2213;SDS011;1113;42.018;23.986;2023-08-06T10:40:48;4.90;;;2.27;;
2213;SDS011;1113;42.018;23.986;2023-08-06T10:43:24;2.30;;;1.70;;
2213;SDS011;1113;42.018;23.986;2023-08-06T10:45:53;2.33;;;1.67;;
2213;SDS011;1113;42.018;23.986;2023-08-06T10:48:28;5.00;;;1.90;;
2213;SDS011;1113;42.018;23.986;2023-08-06T10:50:56;2.97;;;2.20;;
2213;SDS011;1113;42.018;23.986;2023-08-06T10:53:23;3.03;;;1.90;;
2213;SDS011;1113;42.018;23.986;2023-08-06T10:55:50;4.00;;;2.10;;
2213;SDS011;1113;42.018;23.986;2023-08-06T10:58:17;2.30;;;1.80;;
2213;SDS011;1113;42.018;23.986;2023-08-06T11:00:44;2.10;;;1.73;;
2213;SDS011;1113;42.018;23.986;2023-08-06T11:03:14;2.43;;;1.63;;
2213;SDS011;1113;42.018;23.986;2023-08-06T11:05:41;2.57;;;1.70;;
2213;SDS011;1113;42.018;23.986;2023-08-06T11:08:22;1.93;;;1.37;;
2213;SDS011;1113;42.018;23.986;2023-08-06T11:10:49;3.27;;;1.90;;
2213;SDS011;1113;42.018;23.986;2023-08-06T11:13:17;2.63;;;1.83;;
2213;SDS011;1113;42.018;23.986;2023-08-06T11:15:44;2.30;;;1.67;;
2213;SDS011;1113;42.018;23.986;2023-08-06T11:18:13;4.00;;;2.50;;
2213;SDS011;1113;42.018;23.986;2023-08-06T11:20:40;2.33;;;1.60;;
2213;SDS011;1113;42.018;23.986;2023-08-06T11:23:07;2.60;;;1.80;;
2213;SDS011;1113;42.018;23.986;2023-08-06T11:25:36;2.83;;;2.17;;
2213;SDS011;1113;42.018;23.986;2023-08-06T11:28:03;2.97;;;2.27;;
2213;SDS011;1113;42.018;23.986;2023-08-06T11:30:34;4.33;;;2.37;;
2213;SDS011;1113;42.018;23.986;2023-08-06T11:33:01;4.37;;;2.40;;
2213;SDS011;1113;42.018;23.986;2023-08-06T11:35:29;6.63;;;2.17;;
2213;SDS011;1113;42.018;23.986;2023-08-06T11:37:56;3.20;;;2.17;;
2213;SDS011;1113;42.018;23.986;2023-08-06T11:40:24;2.30;;;1.60;;
2213;SDS011;1113;42.018;23.986;2023-08-06T11:42:51;2.67;;;1.87;;
2213;SDS011;1113;42.018;23.986;2023-08-06T11:45:21;3.27;;;2.20;;
2213;SDS011;1113;42.018;23.986;2023-08-06T11:47:49;2.67;;;1.50;;
2213;SDS011;1113;42.018;23.986;2023-08-06T11:50:21;5.10;;;1.83;;
2213;SDS011;1113;42.018;23.986;2023-08-06T11:52:52;2.40;;;1.80;;
2213;SDS011;1113;42.018;23.986;2023-08-06T11:55:22;2.60;;;1.93;;
2213;SDS011;1113;42.018;23.986;2023-08-06T11:57:49;2.67;;;1.50;;
2213;SDS011;1113;42.018;23.986;2023-08-06T12:00:17;3.50;;;1.80;;
2213;SDS011;1113;42.018;23.986;2023-08-06T12:02:45;2.57;;;1.80;;
2213;SDS011;1113;42.018;23.986;2023-08-06T12:05:13;2.40;;;1.70;;
2213;SDS011;1113;42.018;23.986;2023-08-06T12:07:41;2.33;;;1.90;;
2213;SDS011;1113;42.018;23.986;2023-08-06T12:10:09;2.40;;;1.83;;
2213;SDS011;1113;42.018;23.986;2023-08-06T12:13:00;3.03;;;1.90;;
2213;SDS011;1113;42.018;23.986;2023-08-06T12:15:28;2.73;;;2.07;;
2213;SDS011;1113;42.018;23.986;2023-08-06T12:17:55;2.13;;;1.60;;
2213;SDS011;1113;42.018;23.986;2023-08-06T12:20:22;3.43;;;2.10;;
2213;SDS011;1113;42.018;23.986;2023-08-06T12:22:49;2.77;;;2.00;;
2213;SDS011;1113;42.018;23.986;2023-08-06T12:25:17;3.90;;;2.37;;
2213;SDS011;1113;42.018;23.986;2023-08-06T12:27:45;4.00;;;2.20;;
2213;SDS011;1113;42.018;23.986;2023-08-06T12:30:12;4.03;;;2.27;;
2213;SDS011;1113;42.018;23.986;2023-08-06T12:32:39;3.07;;;2.43;;
2213;SDS011;1113;42.018;23.986;2023-08-06T12:35:06;3.13;;;2.03;;
2213;SDS011;1113;42.018;23.986;2023-08-06T12:37:34;3.07;;;2.27;;
2213;SDS011;1113;42.018;23.986;2023-08-06T12:40:01;3.35;;;2.50;;
2213;SDS011;1113;42.018;23.986;2023-08-06T12:42:30;2.63;;;1.93;;
2213;SDS011;1113;42.018;23.986;2023-08-06T12:44:57;2.50;;;2.10;;
2213;SDS011;1113;42.018;23.986;2023-08-06T12:47:25;3.13;;;1.90;;
2213;SDS011;1113;42.018;23.986;2023-08-06T12:49:52;2.43;;;1.93;;
2213;SDS011;1113;42.018;23.986;2023-08-06T12:52:19;2.53;;;2.03;;
2213;SDS011;1113;42.018;23.986;2023-08-06T12:54:46;5.63;;;2.30;;
2213;SDS011;1113;42.018;23.986;2023-08-06T12:57:13;4.63;;;2.17;;
2213;SDS011;1113;42.018;23.986;2023-08-06T12:59:41;3.67;;;1.90;;
2213;SDS011;1113;42.018;23.986;2023-08-06T13:02:08;3.03;;;2.00;;
2213;SDS011;1113;42.018;23.986;2023-08-06T13:04:35;3.13;;;2.27;;
2213;SDS011;1113;42.018;23.986;2023-08-06T13:07:02;3.30;;;2.03;;
2213;SDS011;1113;42.018;23.986;2023-08-06T13:09:31;2.27;;;1.70;;
2213;SDS011;1113;42.018;23.986;2023-08-06T13:11:58;2.67;;;1.80;;
2213;SDS011;1113;42.018;23.986;2023-08-06T13:14:30;3.70;;;2.40;;
2213;SDS011;1113;42.018;23.986;2023-08-06T13:16:59;2.40;;;1.70;;
2213;SDS011;1113;42.018;23.986;2023-08-06T13:19:25;4.63;;;1.90;;
2213;SDS011;1113;42.018;23.986;2023-08-06T13:22:02;2.97;;;2.10;;
2213;SDS011;1113;42.018;23.986;2023-08-06T13:24:30;3.20;;;1.63;;
2213;SDS011;1113;42.018;23.986;2023-08-06T13:26:57;3.20;;;1.90;;
2213;SDS011;1113;42.018;23.986;2023-08-06T13:29:25;3.57;;;1.60;;
2213;SDS011;1113;42.018;23.986;2023-08-06T13:31:52;2.40;;;1.50;;
2213;SDS011;1113;42.018;23.986;2023-08-06T13:34:20;2.10;;;1.40;;
2213;SDS011;1113;42.018;23.986;2023-08-06T13:36:47;3.83;;;1.87;;
2213;SDS011;1113;42.018;23.986;2023-08-06T13:39:15;3.23;;;1.93;;
2213;SDS011;1113;42.018;23.986;2023-08-06T13:41:42;2.50;;;1.50;;
2213;SDS011;1113;42.018;23.986;2023-08-06T13:44:09;2.33;;;1.60;;
2213;SDS011;1113;42.018;23.986;2023-08-06T13:46:39;2.27;;;1.57;;
2213;SDS011;1113;42.018;23.986;2023-08-06T13:49:06;3.47;;;1.50;;
2213;SDS011;1113;42.018;23.986;2023-08-06T13:54:39;2.03;;;1.40;;
2213;SDS011;1113;42.018;23.986;2023-08-06T13:57:06;2.80;;;1.53;;
2213;SDS011;1113;42.018;23.986;2023-08-06T13:59:33;2.10;;;1.70;;
2213;SDS011;1113;42.018;23.986;2023-08-06T14:02:00;3.30;;;1.60;;
2213;SDS011;1113;42.018;23.986;2023-08-06T14:04:28;2.20;;;1.70;;
2213;SDS011;1113;42.018;23.986;2023-08-06T14:06:54;2.20;;;1.80;;
2213;SDS011;1113;42.018;23.986;2023-08-06T14:09:22;2.20;;;1.70;;
2213;SDS011;1113;42.018;23.986;2023-08-06T14:11:50;2.57;;;2.00;;
2213;SDS011;1113;42.018;23.986;2023-08-06T14:14:17;2.30;;;1.47;;
2213;SDS011;1113;42.018;23.986;2023-08-06T14:16:45;2.97;;;1.60;;
2213;SDS011;1113;42.018;23.986;2023-08-06T14:19:12;2.27;;;1.43;;
2213;SDS011;1113;42.018;23.986;2023-08-06T14:21:40;3.23;;;1.93;;
2213;SDS011;1113;42.018;23.986;2023-08-06T14:24:07;2.10;;;1.70;;
2213;SDS011;1113;42.018;23.986;2023-08-06T14:26:36;2.50;;;1.63;;
2213;SDS011;1113;42.018;23.986;2023-08-06T14:29:04;2.67;;;1.80;;
2213;SDS011;1113;42.018;23.986;2023-08-06T14:31:31;2.90;;;1.40;;
2213;SDS011;1113;42.018;23.986;2023-08-06T14:33:59;1.90;;;1.10;;
2213;SDS011;1113;42.018;23.986;2023-08-06T14:36:34;2.00;;;1.30;;
2213;SDS011;1113;42.018;23.986;2023-08-06T14:42:26;2.67;;;1.43;;
2213;SDS011;1113;42.018;23.986;2023-08-06T14:44:55;1.97;;;1.20;;
2213;SDS011;1113;42.018;23.986;2023-08-06T14:47:21;2.33;;;1.40;;
2213;SDS011;1113;42.018;23.986;2023-08-06T14:49:48;3.23;;;1.40;;
2213;SDS011;1113;42.018;23.986;2023-08-06T14:52:16;2.60;;;1.27;;
2213;SDS011;1113;42.018;23.986;2023-08-06T14:54:45;4.80;;;1.50;;
2213;SDS011;1113;42.018;23.986;2023-08-06T14:57:12;2.03;;;1.23;;